Time;durP1;ratioP1;P1;durP2;ratioP2;P2;SDS_P1;SDS_P2;PMS_P1;PMS_P2;Temp;Humidity;BMP_temperature;BMP_pressure;BME280_temperature;BME280_humidity;BME280_pressure;Samples;Min_cycle;Max_cycle;Signal;HPM_P1;HPM_P2
2021/12/19 00:04:16;;;;;;;3.10;1.90;;;;;;;;;;5019693;28;20827;-77
2021/12/19 00:09:29;;;;;;;2.67;1.87;;;;;;;;;;5031160;28;20969;-78
2021/12/19 00:11:56;;;;;;;3.00;1.87;;;;;;;;;;5012466;28;20466;-78
2021/12/19 00:14:23;;;;;;;7.97;2.20;;;;;;;;;;5030689;28;20802;-78
2021/12/19 00:16:50;;;;;;;6.33;1.93;;;;;;;;;;5030768;28;20515;-78
2021/12/19 00:19:16;;;;;;;3.50;1.77;;;;;;;;;;5030831;28;20456;-78
2021/12/19 00:21:43;;;;;;;3.53;2.30;;;;;;;;;;5012742;28;20411;-78
2021/12/19 00:24:09;;;;;;;3.00;2.07;;;;;;;;;;5030328;28;20484;-78
2021/12/19 00:26:35;;;;;;;10.30;2.27;;;;;;;;;;5030611;28;20463;-77
2021/12/19 00:29:03;;;;;;;3.40;2.47;;;;;;;;;;5030792;28;20539;-78
2021/12/19 00:31:29;;;;;;;3.17;1.93;;;;;;;;;;5030648;28;20823;-78
2021/12/19 00:33:55;;;;;;;2.77;1.63;;;;;;;;;;5013004;28;21010;-78
2021/12/19 00:36:21;;;;;;;3.13;1.80;;;;;;;;;;5030269;28;20492;-78
2021/12/19 00:38:47;;;;;;;3.20;1.70;;;;;;;;;;5030629;28;20486;-78
2021/12/19 00:41:13;;;;;;;3.10;1.90;;;;;;;;;;5030345;28;20419;-78
2021/12/19 00:46:09;;;;;;;2.33;1.50;;;;;;;;;;5030470;28;20452;-78
2021/12/19 00:48:40;;;;;;;2.50;1.67;;;;;;;;;;5030304;28;20409;-78
2021/12/19 00:51:08;;;;;;;2.43;1.67;;;;;;;;;;5030191;28;20485;-78
2021/12/19 00:53:35;;;;;;;3.37;2.10;;;;;;;;;;5030672;28;20412;-79
2021/12/19 00:56:01;;;;;;;3.73;2.13;;;;;;;;;;5013471;28;20421;-79
2021/12/19 00:58:27;;;;;;;3.70;2.47;;;;;;;;;;5031014;28;20533;-79
2021/12/19 01:00:53;;;;;;;4.77;2.20;;;;;;;;;;5030716;28;20416;-79
2021/12/19 01:03:20;;;;;;;3.57;2.37;;;;;;;;;;5034454;28;20914;-79
2021/12/19 01:05:47;;;;;;;2.60;1.53;;;;;;;;;;5034724;28;20407;-79
2021/12/19 01:08:13;;;;;;;3.20;2.17;;;;;;;;;;5034754;28;20424;-79
2021/12/19 01:10:40;;;;;;;3.00;1.80;;;;;;;;;;5016763;28;20478;-79
2021/12/19 01:13:06;;;;;;;3.10;2.20;;;;;;;;;;5034181;28;20404;-79
2021/12/19 01:15:32;;;;;;;3.17;1.80;;;;;;;;;;5034799;28;20405;-79
2021/12/19 01:17:59;;;;;;;3.00;1.67;;;;;;;;;;5017844;28;20468;-79
2021/12/19 01:20:26;;;;;;;3.40;1.97;;;;;;;;;;5035631;28;20401;-77
2021/12/19 01:22:52;;;;;;;3.80;2.07;;;;;;;;;;5034701;28;20401;-78
2021/12/19 01:25:19;;;;;;;2.90;2.00;;;;;;;;;;5034310;28;20495;-78
2021/12/19 01:27:45;;;;;;;3.90;2.20;;;;;;;;;;5017062;28;20907;-79
2021/12/19 01:30:11;;;;;;;3.03;2.33;;;;;;;;;;5016695;28;20409;-78
2021/12/19 01:32:38;;;;;;;3.20;2.30;;;;;;;;;;5034331;28;20408;-78
2021/12/19 01:35:05;;;;;;;3.80;2.43;;;;;;;;;;5016590;28;20983;-78
2021/12/19 01:37:31;;;;;;;4.00;2.53;;;;;;;;;;5034170;28;20435;-78
2021/12/19 01:39:57;;;;;;;3.57;2.20;;;;;;;;;;5034316;28;20454;-78
2021/12/19 01:42:29;;;;;;;3.03;2.40;;;;;;;;;;5034463;28;20409;-77
2021/12/19 01:44:55;;;;;;;2.47;1.90;;;;;;;;;;5034906;28;20757;-78
2021/12/19 01:47:21;;;;;;;4.33;2.00;;;;;;;;;;5034445;28;20420;-78
2021/12/19 01:49:47;;;;;;;4.43;2.40;;;;;;;;;;5032941;28;20436;-77
2021/12/19 01:52:13;;;;;;;4.53;2.63;;;;;;;;;;5035835;28;20405;-78
2021/12/19 01:54:39;;;;;;;4.60;2.87;;;;;;;;;;5035161;28;20408;-78
2021/12/19 01:57:05;;;;;;;3.20;2.13;;;;;;;;;;5034815;28;20452;-78
2021/12/19 01:59:31;;;;;;;3.77;2.30;;;;;;;;;;5034697;28;20488;-78
2021/12/19 02:01:57;;;;;;;3.53;2.37;;;;;;;;;;5034225;28;20495;-78
2021/12/19 02:04:26;;;;;;;4.57;3.00;;;;;;;;;;5034791;28;20401;-78
2021/12/19 02:06:52;;;;;;;3.90;2.43;;;;;;;;;;5033679;28;20449;-77
2021/12/19 02:09:18;;;;;;;5.33;2.77;;;;;;;;;;5015219;28;20514;-77
2021/12/19 02:11:44;;;;;;;3.63;2.13;;;;;;;;;;5015153;28;20420;-78
2021/12/19 02:14:11;;;;;;;3.27;2.23;;;;;;;;;;5042538;28;20436;-79
2021/12/19 02:16:38;;;;;;;3.57;2.10;;;;;;;;;;5047158;28;20424;-78
2021/12/19 02:19:05;;;;;;;3.30;1.90;;;;;;;;;;5045287;28;20471;-78
2021/12/19 02:21:31;;;;;;;11.40;3.83;;;;;;;;;;5032036;28;20401;-78
2021/12/19 02:23:58;;;;;;;3.07;1.60;;;;;;;;;;5033017;28;20899;-78
2021/12/19 02:26:24;;;;;;;3.03;1.67;;;;;;;;;;5014775;28;20464;-78
2021/12/19 02:28:50;;;;;;;4.00;2.60;;;;;;;;;;5035040;28;20409;-78
2021/12/19 02:31:16;;;;;;;3.10;2.07;;;;;;;;;;5033384;28;20923;-79
2021/12/19 02:33:53;;;;;;;3.43;2.03;;;;;;;;;;5050575;28;20459;-79
2021/12/19 02:36:37;;;;;;;3.13;2.00;;;;;;;;;;5048160;28;20451;-78
2021/12/19 02:50:07;;;;;;;8.30;2.60;;;;;;;;;;5032466;28;20454;-78
2021/12/19 02:52:33;;;;;;;4.57;2.80;;;;;;;;;;5031809;28;20968;-78
2021/12/19 02:54:59;;;;;;;5.50;2.80;;;;;;;;;;5014160;28;20412;-78
2021/12/19 02:57:25;;;;;;;4.30;2.20;;;;;;;;;;5032093;28;20443;-78
2021/12/19 02:59:52;;;;;;;4.10;2.20;;;;;;;;;;5014325;28;20464;-78
2021/12/19 03:02:18;;;;;;;4.30;1.90;;;;;;;;;;5014265;28;20563;-78
2021/12/19 03:04:58;;;;;;;3.93;2.40;;;;;;;;;;5014569;28;20528;-78
2021/12/19 03:07:25;;;;;;;5.03;1.80;;;;;;;;;;5031633;28;20487;-78
2021/12/19 03:18:20;;;;;;;3.10;1.87;;;;;;;;;;5032811;28;20989;-78
2021/12/19 03:20:47;;;;;;;5.57;3.33;;;;;;;;;;5014665;28;20409;-78
2021/12/19 03:23:14;;;;;;;3.93;2.60;;;;;;;;;;5014899;28;20419;-78
2021/12/19 03:25:40;;;;;;;4.80;3.10;;;;;;;;;;5031966;28;20412;-78
2021/12/19 03:28:08;;;;;;;6.10;3.30;;;;;;;;;;5031993;28;20424;-78
2021/12/19 03:30:34;;;;;;;5.03;2.50;;;;;;;;;;5031576;28;20776;-78
2021/12/19 03:33:00;;;;;;;3.30;2.20;;;;;;;;;;5032007;28;20418;-78
2021/12/19 03:35:30;;;;;;;2.87;1.63;;;;;;;;;;5031861;28;20416;-78
2021/12/19 03:37:57;;;;;;;2.90;1.80;;;;;;;;;;5031862;28;20503;-78
2021/12/19 03:40:24;;;;;;;3.37;2.13;;;;;;;;;;5031526;28;20896;-78
2021/12/19 03:42:51;;;;;;;4.30;2.80;;;;;;;;;;5033467;28;20401;-78
2021/12/19 03:45:18;;;;;;;3.60;2.13;;;;;;;;;;5033056;28;20401;-78
2021/12/19 03:47:45;;;;;;;4.43;2.83;;;;;;;;;;5034023;28;20451;-78
2021/12/19 03:50:12;;;;;;;2.80;1.53;;;;;;;;;;5034956;28;20412;-78
2021/12/19 03:52:38;;;;;;;5.03;2.23;;;;;;;;;;5013103;28;20413;-78
2021/12/19 03:55:05;;;;;;;3.93;2.53;;;;;;;;;;5031666;28;20784;-77
2021/12/19 03:57:31;;;;;;;3.70;2.20;;;;;;;;;;5030795;28;20475;-77
2021/12/19 03:59:57;;;;;;;4.33;2.60;;;;;;;;;;5012868;28;20456;-78
2021/12/19 04:02:27;;;;;;;2.90;1.63;;;;;;;;;;5030691;28;20439;-78
2021/12/19 04:04:54;;;;;;;3.87;2.10;;;;;;;;;;5030836;28;20404;-78
2021/12/19 04:07:21;;;;;;;2.77;1.63;;;;;;;;;;5030830;28;20428;-78
2021/12/19 04:09:47;;;;;;;3.40;1.87;;;;;;;;;;5030447;28;20745;-78
2021/12/19 04:12:13;;;;;;;2.60;1.73;;;;;;;;;;5030828;28;20411;-78
2021/12/19 04:14:39;;;;;;;3.90;2.20;;;;;;;;;;5030727;28;20416;-78
2021/12/19 04:17:06;;;;;;;4.33;2.70;;;;;;;;;;5030497;28;20899;-78
2021/12/19 04:19:32;;;;;;;4.17;2.17;;;;;;;;;;5012792;28;20521;-78
2021/12/19 04:21:59;;;;;;;4.53;2.47;;;;;;;;;;5012984;28;20413;-78
2021/12/19 04:24:25;;;;;;;3.80;2.00;;;;;;;;;;5030439;28;20907;-78
2021/12/19 04:26:51;;;;;;;4.30;2.53;;;;;;;;;;5030765;28;20788;-78
2021/12/19 04:29:17;;;;;;;4.50;2.60;;;;;;;;;;5030027;28;20922;-78
2021/12/19 04:31:43;;;;;;;4.27;2.60;;;;;;;;;;5030323;28;20405;-78
2021/12/19 04:34:09;;;;;;;3.90;2.47;;;;;;;;;;5012894;28;20413;-78
2021/12/19 04:36:40;;;;;;;3.00;2.10;;;;;;;;;;5013586;28;20479;-78
2021/12/19 04:58:02;;;;;;;3.40;2.00;;;;;;;;;;5033835;28;20862;-77
2021/12/19 05:00:45;;;;;;;3.00;2.03;;;;;;;;;;5033596;28;20887;-77
2021/12/19 05:03:31;;;;;;;4.40;2.53;;;;;;;;;;5016236;28;20409;-77
2021/12/19 05:14:15;;;;;;;3.50;1.80;;;;;;;;;;5034029;28;20440;-77
2021/12/19 05:16:44;;;;;;;3.10;2.23;;;;;;;;;;5033443;28;20428;-77
2021/12/19 05:19:23;;;;;;;4.40;2.70;;;;;;;;;;5016139;28;20460;-77
2021/12/19 05:21:52;;;;;;;2.63;1.90;;;;;;;;;;5016392;28;20470;-77
2021/12/19 05:26:44;;;;;;;3.53;2.07;;;;;;;;;;5034656;28;20943;-78
2021/12/19 05:29:11;;;;;;;2.83;1.60;;;;;;;;;;5033273;28;20440;-77
2021/12/19 05:31:37;;;;;;;3.17;1.80;;;;;;;;;;5033311;28;20757;-77
2021/12/19 05:34:03;;;;;;;4.57;2.57;;;;;;;;;;5015968;28;20440;-78
2021/12/19 05:47:09;;;;;;;1.80;1.63;;;;;;;;;;5034368;28;20943;-78
2021/12/19 05:49:35;;;;;;;3.97;2.10;;;;;;;;;;5033634;28;20404;-78
2021/12/19 05:52:00;;;;;;;2.67;1.90;;;;;;;;;;5034389;28;20408;-78
2021/12/19 05:54:27;;;;;;;3.70;1.93;;;;;;;;;;5015913;28;20417;-78
2021/12/19 05:56:53;;;;;;;3.40;1.97;;;;;;;;;;5016319;28;20436;-78
2021/12/19 05:59:19;;;;;;;4.17;2.10;;;;;;;;;;5034605;28;20483;-78
2021/12/19 06:01:46;;;;;;;2.60;1.50;;;;;;;;;;5032954;28;20401;-78
2021/12/19 06:04:12;;;;;;;4.27;1.70;;;;;;;;;;5015979;28;20439;-78
2021/12/19 06:06:38;;;;;;;3.93;2.00;;;;;;;;;;5034580;28;20429;-78
2021/12/19 06:09:05;;;;;;;3.80;2.07;;;;;;;;;;5016865;28;20565;-78
2021/12/19 06:11:31;;;;;;;6.03;2.47;;;;;;;;;;5034264;28;20506;-78
2021/12/19 06:13:57;;;;;;;4.90;2.40;;;;;;;;;;5034268;28;20928;-78
2021/12/19 06:16:23;;;;;;;4.77;2.43;;;;;;;;;;5033852;28;20599;-78
2021/12/19 06:18:49;;;;;;;4.10;1.90;;;;;;;;;;5033752;28;20463;-78
2021/12/19 06:21:15;;;;;;;3.93;1.70;;;;;;;;;;5033208;28;20407;-78
2021/12/19 06:23:41;;;;;;;4.23;2.20;;;;;;;;;;5035377;28;20524;-78
2021/12/19 06:26:10;;;;;;;5.07;2.43;;;;;;;;;;5032787;28;20411;-76
2021/12/19 06:28:36;;;;;;;4.60;2.57;;;;;;;;;;5032258;28;20900;-77
2021/12/19 06:31:03;;;;;;;4.03;2.30;;;;;;;;;;5031707;28;20499;-77
2021/12/19 06:33:28;;;;;;;3.60;2.20;;;;;;;;;;5031963;28;21173;-77
2021/12/19 06:35:54;;;;;;;4.57;2.43;;;;;;;;;;5032347;28;20888;-77
2021/12/19 06:38:20;;;;;;;5.73;2.90;;;;;;;;;;5031948;28;20460;-77
2021/12/19 06:40:46;;;;;;;5.47;2.77;;;;;;;;;;5031859;28;20401;-76
2021/12/19 06:43:12;;;;;;;3.87;2.10;;;;;;;;;;5014340;28;20467;-78
2021/12/19 06:45:38;;;;;;;4.53;2.60;;;;;;;;;;5032922;28;20405;-78
2021/12/19 06:48:05;;;;;;;3.70;1.90;;;;;;;;;;5032237;28;20417;-77
2021/12/19 06:50:31;;;;;;;3.00;2.07;;;;;;;;;;5014137;28;21046;-77
2021/12/19 06:52:57;;;;;;;2.67;1.87;;;;;;;;;;5032298;28;20496;-79
2021/12/19 06:55:23;;;;;;;3.47;2.87;;;;;;;;;;5034090;28;20432;-77
2021/12/19 06:57:49;;;;;;;2.40;1.50;;;;;;;;;;5031941;28;20447;-77
2021/12/19 07:00:19;;;;;;;2.93;1.47;;;;;;;;;;5030934;28;20412;-77
2021/12/19 07:02:45;;;;;;;2.70;1.90;;;;;;;;;;5031572;28;20515;-77
2021/12/19 07:05:11;;;;;;;2.13;1.30;;;;;;;;;;5030540;28;20412;-77
2021/12/19 07:07:38;;;;;;;2.50;1.00;;;;;;;;;;5031483;28;20424;-77
2021/12/19 07:10:04;;;;;;;2.50;1.43;;;;;;;;;;5031703;28;20965;-77
2021/12/19 07:12:30;;;;;;;2.60;1.80;;;;;;;;;;5031444;28;20404;-76
2021/12/19 07:14:57;;;;;;;2.80;1.70;;;;;;;;;;5031292;28;20436;-77
2021/12/19 07:17:24;;;;;;;3.63;2.10;;;;;;;;;;5030785;28;20424;-77
2021/12/19 07:19:50;;;;;;;2.67;1.73;;;;;;;;;;5030463;28;20542;-77
2021/12/19 07:22:16;;;;;;;2.93;1.40;;;;;;;;;;5031720;28;20460;-77
2021/12/19 07:24:42;;;;;;;4.73;2.00;;;;;;;;;;5033026;28;20908;-76
2021/12/19 07:27:08;;;;;;;2.87;1.37;;;;;;;;;;5032263;28;20496;-77
2021/12/19 07:29:34;;;;;;;4.00;2.20;;;;;;;;;;5031553;28;20884;-76
2021/12/19 07:32:00;;;;;;;3.27;1.93;;;;;;;;;;5030948;28;20480;-77
2021/12/19 07:34:32;;;;;;;3.00;1.60;;;;;;;;;;5031006;28;20900;-77
2021/12/19 07:36:59;;;;;;;2.70;1.83;;;;;;;;;;5031286;28;20951;-77
2021/12/19 07:42:02;;;;;;;3.37;1.60;;;;;;;;;;5031355;28;20884;-76
2021/12/19 07:44:28;;;;;;;3.27;1.97;;;;;;;;;;5030656;28;20788;-77
2021/12/19 07:46:54;;;;;;;4.80;2.50;;;;;;;;;;5031084;28;20932;-77
2021/12/19 07:49:20;;;;;;;3.37;1.97;;;;;;;;;;5030979;28;20409;-77
2021/12/19 07:51:46;;;;;;;3.20;2.07;;;;;;;;;;5013066;28;20838;-76
2021/12/19 07:54:12;;;;;;;2.93;1.40;;;;;;;;;;5030844;28;20988;-77
2021/12/19 07:56:39;;;;;;;7.43;2.13;;;;;;;;;;5030707;28;20466;-76
2021/12/19 07:59:05;;;;;;;3.43;2.53;;;;;;;;;;5031046;28;20500;-76
2021/12/19 08:01:31;;;;;;;7.10;2.30;;;;;;;;;;5030595;28;20408;-76
2021/12/19 08:03:57;;;;;;;3.90;2.57;;;;;;;;;;5031072;28;20412;-76
2021/12/19 08:06:24;;;;;;;5.73;2.60;;;;;;;;;;5030848;28;21041;-76
2021/12/19 08:08:53;;;;;;;7.07;3.20;;;;;;;;;;5030818;28;20724;-77
2021/12/19 08:14:05;;;;;;;5.20;2.97;;;;;;;;;;5035700;28;20451;-77
2021/12/19 08:16:31;;;;;;;4.93;2.63;;;;;;;;;;5035250;28;20431;-77
2021/12/19 08:18:57;;;;;;;5.50;2.73;;;;;;;;;;5035103;28;20460;-76
2021/12/19 08:21:23;;;;;;;4.87;3.13;;;;;;;;;;5032807;28;20412;-77
2021/12/19 08:23:50;;;;;;;3.83;2.70;;;;;;;;;;5035202;28;20400;-77
2021/12/19 08:26:16;;;;;;;5.60;2.63;;;;;;;;;;5035126;28;20895;-77
2021/12/19 08:28:42;;;;;;;3.43;2.63;;;;;;;;;;5034782;28;20444;-76
2021/12/19 08:31:08;;;;;;;4.40;2.70;;;;;;;;;;5032830;28;20424;-77
2021/12/19 08:33:34;;;;;;;5.00;3.00;;;;;;;;;;5034142;28;20896;-77
2021/12/19 08:36:01;;;;;;;9.30;2.50;;;;;;;;;;5034581;28;20423;-77
2021/12/19 08:38:27;;;;;;;3.60;2.40;;;;;;;;;;5034143;28;20892;-76
2021/12/19 08:40:53;;;;;;;7.13;2.87;;;;;;;;;;5034145;28;20439;-77
2021/12/19 08:43:20;;;;;;;6.67;2.73;;;;;;;;;;5032778;28;20411;-76
2021/12/19 08:45:46;;;;;;;4.07;2.70;;;;;;;;;;5034161;28;20466;-77
2021/12/19 08:48:12;;;;;;;4.60;2.70;;;;;;;;;;5034154;28;20424;-77
2021/12/19 08:50:38;;;;;;;4.47;2.70;;;;;;;;;;5033696;28;20495;-77
2021/12/19 08:53:06;;;;;;;5.20;3.00;;;;;;;;;;5034014;28;20404;-76
2021/12/19 08:55:32;;;;;;;9.30;2.93;;;;;;;;;;5034239;28;20401;-76
2021/12/19 08:57:58;;;;;;;5.20;2.90;;;;;;;;;;5032389;28;20537;-76
2021/12/19 09:00:24;;;;;;;6.07;3.30;;;;;;;;;;5033672;28;20447;-77
2021/12/19 09:02:53;;;;;;;11.70;3.20;;;;;;;;;;5033933;28;20900;-77
2021/12/19 09:05:20;;;;;;;4.80;3.00;;;;;;;;;;5033754;28;20405;-76
2021/12/19 09:07:46;;;;;;;4.30;2.90;;;;;;;;;;5033823;28;20474;-77
2021/12/19 09:10:12;;;;;;;5.90;1.50;;;;;;;;;;5033332;28;20408;-76
2021/12/19 09:12:38;;;;;;;3.37;2.07;;;;;;;;;;5033579;28;20491;-76
2021/12/19 09:15:05;;;;;;;3.00;1.60;;;;;;;;;;5033650;28;20405;-76
2021/12/19 09:17:31;;;;;;;4.03;1.70;;;;;;;;;;5033883;28;20432;-76
2021/12/19 09:19:58;;;;;;;5.20;2.63;;;;;;;;;;5033244;28;20459;-78
2021/12/19 09:22:24;;;;;;;5.67;1.27;;;;;;;;;;5032455;28;20423;-78
2021/12/19 09:24:50;;;;;;;3.00;1.70;;;;;;;;;;5033695;28;20408;-78
2021/12/19 09:27:17;;;;;;;2.90;1.83;;;;;;;;;;5032661;28;20439;-79
2021/12/19 09:29:43;;;;;;;2.97;1.70;;;;;;;;;;5033054;28;20417;-79
2021/12/19 09:32:09;;;;;;;2.40;1.43;;;;;;;;;;5033214;28;20459;-79
2021/12/19 09:34:35;;;;;;;2.87;1.97;;;;;;;;;;5033101;28;20440;-78
2021/12/19 09:37:01;;;;;;;6.13;2.00;;;;;;;;;;5033316;28;20443;-78
2021/12/19 09:39:27;;;;;;;4.47;2.30;;;;;;;;;;5032072;28;21016;-78
2021/12/19 09:41:56;;;;;;;2.07;1.60;;;;;;;;;;5032063;28;20843;-78
2021/12/19 09:44:22;;;;;;;6.10;1.80;;;;;;;;;;5032633;28;20827;-79
2021/12/19 09:46:49;;;;;;;5.00;2.20;;;;;;;;;;5032770;28;20851;-79
2021/12/19 09:49:16;;;;;;;3.37;1.87;;;;;;;;;;5032663;28;20430;-78
2021/12/19 09:51:43;;;;;;;6.50;2.77;;;;;;;;;;5032436;28;20492;-78
2021/12/19 09:54:10;;;;;;;5.70;2.90;;;;;;;;;;5032636;28;20454;-77
2021/12/19 09:56:36;;;;;;;3.60;2.60;;;;;;;;;;5031998;28;20452;-77
2021/12/19 09:59:03;;;;;;;4.00;2.37;;;;;;;;;;5031878;28;20479;-78
2021/12/19 10:01:31;;;;;;;2.63;1.83;;;;;;;;;;5031655;28;20482;-78
2021/12/19 10:03:57;;;;;;;1.63;1.17;;;;;;;;;;5032423;28;20772;-78
2021/12/19 10:06:24;;;;;;;3.20;1.40;;;;;;;;;;5031677;28;20415;-78
2021/12/19 10:09:06;;;;;;;7.50;2.20;;;;;;;;;;5032759;28;20957;-78
2021/12/19 10:11:52;;;;;;;3.23;1.77;;;;;;;;;;5032097;28;20419;-78
2021/12/19 10:14:37;;;;;;;4.03;2.00;;;;;;;;;;5032486;28;20412;-77
2021/12/19 10:17:07;;;;;;;4.03;1.40;;;;;;;;;;5030700;28;20448;-78
2021/12/19 10:19:43;;;;;;;2.63;1.23;;;;;;;;;;5032518;28;20466;-78
2021/12/19 10:22:28;;;;;;;3.00;1.50;;;;;;;;;;5030822;28;20951;-78
2021/12/19 10:24:55;;;;;;;2.77;1.70;;;;;;;;;;5032493;28;20415;-78
2021/12/19 10:27:31;;;;;;;2.90;2.00;;;;;;;;;;5032288;28;20449;-78
2021/12/19 10:29:57;;;;;;;4.27;2.10;;;;;;;;;;5030613;28;20432;-78
2021/12/19 10:32:23;;;;;;;3.80;1.77;;;;;;;;;;5032202;28;20408;-78
2021/12/19 10:34:49;;;;;;;2.00;1.17;;;;;;;;;;5032115;28;20405;-78
2021/12/19 10:37:34;;;;;;;7.13;2.77;;;;;;;;;;5030983;28;20440;-77
2021/12/19 10:40:01;;;;;;;9.80;2.57;;;;;;;;;;5031821;28;20486;-77
2021/12/19 10:42:34;;;;;;;3.60;1.40;;;;;;;;;;5031814;28;20796;-78
2021/12/19 10:47:44;;;;;;;8.50;2.60;;;;;;;;;;5031679;28;20431;-78
2021/12/19 10:50:10;;;;;;;4.90;2.70;;;;;;;;;;5031622;28;20396;-78
2021/12/19 10:52:38;;;;;;;6.43;2.87;;;;;;;;;;5031718;28;20502;-77
2021/12/19 10:55:09;;;;;;;7.90;2.70;;;;;;;;;;5031848;28;20396;-77
2021/12/19 10:57:40;;;;;;;7.67;2.77;;;;;;;;;;5031583;28;20440;-77
2021/12/19 11:00:12;;;;;;;2.53;1.43;;;;;;;;;;5031122;28;20980;-78
2021/12/19 11:02:42;;;;;;;8.67;3.23;;;;;;;;;;5031624;28;20408;-77
2021/12/19 11:05:28;;;;;;;3.70;1.73;;;;;;;;;;5031759;28;20396;-78
2021/12/19 11:07:59;;;;;;;3.60;1.93;;;;;;;;;;5031587;28;20428;-77
2021/12/19 11:10:25;;;;;;;8.50;2.03;;;;;;;;;;5030988;28;20774;-77
2021/12/19 11:13:08;;;;;;;4.30;2.60;;;;;;;;;;5031377;28;21103;-78
2021/12/19 11:15:34;;;;;;;8.17;3.13;;;;;;;;;;5031604;28;20408;-77
2021/12/19 11:18:00;;;;;;;5.20;2.73;;;;;;;;;;5031361;28;20455;-77
2021/12/19 11:20:26;;;;;;;8.97;2.70;;;;;;;;;;5031096;28;20407;-77
2021/12/19 11:22:53;;;;;;;6.13;2.70;;;;;;;;;;5031134;28;20905;-77
2021/12/19 11:25:19;;;;;;;4.83;2.37;;;;;;;;;;5031289;28;20900;-77
2021/12/19 11:27:46;;;;;;;9.33;2.87;;;;;;;;;;5031231;28;20427;-77
2021/12/19 11:30:14;;;;;;;5.17;2.23;;;;;;;;;;5030769;28;20434;-77
2021/12/19 11:32:40;;;;;;;8.07;3.90;;;;;;;;;;5031121;28;20405;-77
2021/12/19 11:35:10;;;;;;;8.17;2.70;;;;;;;;;;5030850;28;20401;-77
2021/12/19 11:37:42;;;;;;;5.10;2.60;;;;;;;;;;5031157;28;20435;-77
2021/12/19 11:40:09;;;;;;;4.07;2.20;;;;;;;;;;5030554;28;20486;-77
2021/12/19 11:42:36;;;;;;;5.80;2.13;;;;;;;;;;5031007;28;20400;-77
2021/12/19 11:45:23;;;;;;;7.80;3.60;;;;;;;;;;5030790;28;20401;-78
2021/12/19 11:47:54;;;;;;;9.43;3.57;;;;;;;;;;5031303;28;20435;-79
2021/12/19 11:50:29;;;;;;;3.00;1.77;;;;;;;;;;5031084;28;20396;-79
2021/12/19 11:52:56;;;;;;;6.67;2.67;;;;;;;;;;5030042;28;20431;-78
2021/12/19 11:55:23;;;;;;;4.53;2.77;;;;;;;;;;5027287;28;20796;-78
2021/12/19 11:58:12;;;;;;;4.27;2.60;;;;;;;;;;5028982;28;20455;-78
2021/12/19 12:00:43;;;;;;;8.47;2.47;;;;;;;;;;5023613;28;20788;-79
2021/12/19 12:03:12;;;;;;;6.40;2.63;;;;;;;;;;5030033;28;20397;-79
2021/12/19 12:05:42;;;;;;;10.10;2.40;;;;;;;;;;5028364;28;20420;-79
2021/12/19 12:08:08;;;;;;;3.30;1.83;;;;;;;;;;5029002;28;20417;-78
2021/12/19 12:10:54;;;;;;;9.63;2.80;;;;;;;;;;5028273;28;20412;-78
2021/12/19 12:13:23;;;;;;;11.37;2.63;;;;;;;;;;5023827;28;20855;-78
2021/12/19 12:15:52;;;;;;;5.37;2.33;;;;;;;;;;5026660;28;20419;-78
2021/12/19 12:18:34;;;;;;;4.07;2.13;;;;;;;;;;5022157;28;21058;-78
2021/12/19 12:21:19;;;;;;;14.53;3.30;;;;;;;;;;5027208;28;20431;-77
2021/12/19 12:23:52;;;;;;;4.27;2.20;;;;;;;;;;5027598;28;20408;-76
2021/12/19 12:26:30;;;;;;;3.73;1.40;;;;;;;;;;5027302;28;20417;-79
2021/12/19 12:28:57;;;;;;;4.60;1.77;;;;;;;;;;5026700;28;20908;-77
2021/12/19 12:31:24;;;;;;;4.20;1.97;;;;;;;;;;5028087;28;20824;-76
2021/12/19 12:33:50;;;;;;;5.70;2.00;;;;;;;;;;5027941;28;20427;-76
2021/12/19 12:36:16;;;;;;;3.70;1.80;;;;;;;;;;5026429;28;20416;-76
2021/12/19 12:38:49;;;;;;;5.20;1.83;;;;;;;;;;5027821;28;20464;-77
2021/12/19 12:41:28;;;;;;;3.13;1.67;;;;;;;;;;5029579;28;20466;-78
2021/12/19 12:43:55;;;;;;;2.70;1.50;;;;;;;;;;5028495;28;20412;-77
2021/12/19 12:46:22;;;;;;;5.23;2.30;;;;;;;;;;5028740;28;20452;-77
2021/12/19 12:48:52;;;;;;;2.90;1.53;;;;;;;;;;5028183;28;20808;-77
2021/12/19 12:51:20;;;;;;;3.10;1.50;;;;;;;;;;5001670;28;20892;-77
2021/12/19 12:53:47;;;;;;;4.37;2.07;;;;;;;;;;5010478;28;20428;-77
2021/12/19 12:56:15;;;;;;;3.70;1.80;;;;;;;;;;5027806;28;20417;-76
2021/12/19 12:59:00;;;;;;;3.40;1.80;;;;;;;;;;5029620;28;20456;-76
2021/12/19 13:01:34;;;;;;;4.30;2.00;;;;;;;;;;5028941;28;20420;-76
2021/12/19 13:04:02;;;;;;;4.07;1.60;;;;;;;;;;5032318;28;20400;-77
2021/12/19 13:06:39;;;;;;;3.63;1.67;;;;;;;;;;5032312;28;20428;-76
2021/12/19 13:09:20;;;;;;;3.60;1.90;;;;;;;;;;5029467;28;20427;-76
2021/12/19 13:11:47;;;;;;;10.13;2.27;;;;;;;;;;5030921;28;20428;-76
2021/12/19 13:14:22;;;;;;;2.30;1.50;;;;;;;;;;5034093;28;20409;-77
2021/12/19 13:16:52;;;;;;;5.60;1.90;;;;;;;;;;5033288;28;20447;-77
2021/12/19 13:19:42;;;;;;;9.10;1.90;;;;;;;;;;5032840;28;20471;-77
2021/12/19 13:22:13;;;;;;;3.97;1.80;;;;;;;;;;5027539;28;20429;-77
2021/12/19 13:24:40;;;;;;;2.67;1.67;;;;;;;;;;5033163;28;20478;-79
2021/12/19 13:27:06;;;;;;;2.33;1.50;;;;;;;;;;5030263;28;20863;-77
2021/12/19 13:29:32;;;;;;;2.20;1.30;;;;;;;;;;5030343;28;20448;-77
2021/12/19 13:32:17;;;;;;;2.60;1.57;;;;;;;;;;5034806;28;20907;-77
2021/12/19 13:34:43;;;;;;;2.20;1.50;;;;;;;;;;5030362;28;20765;-77
2021/12/19 13:37:09;;;;;;;3.50;2.20;;;;;;;;;;5032870;28;20448;-77
2021/12/19 13:39:35;;;;;;;3.43;1.90;;;;;;;;;;5029515;28;20556;-77
2021/12/19 13:42:09;;;;;;;1.80;1.20;;;;;;;;;;5029654;28;20453;-77
2021/12/19 13:44:36;;;;;;;3.23;2.07;;;;;;;;;;5033618;28;20427;-77
2021/12/19 13:47:13;;;;;;;3.87;1.80;;;;;;;;;;5033385;28;20429;-77
2021/12/19 13:49:39;;;;;;;6.10;1.57;;;;;;;;;;5029516;28;20443;-77
2021/12/19 13:52:06;;;;;;;6.27;1.77;;;;;;;;;;5030925;28;20401;-77
2021/12/19 13:54:34;;;;;;;4.53;2.30;;;;;;;;;;5030998;28;20458;-77
2021/12/19 13:57:00;;;;;;;5.33;2.00;;;;;;;;;;5023801;22;20483;-80
2021/12/19 13:59:27;;;;;;;8.27;1.97;;;;;;;;;;4970921;28;20455;-79
2021/12/19 14:01:54;;;;;;;5.43;1.67;;;;;;;;;;4971374;28;20905;-85
2021/12/19 14:04:22;;;;;;;2.87;1.70;;;;;;;;;;4970467;28;20494;-80
2021/12/19 14:06:49;;;;;;;22.93;2.47;;;;;;;;;;4971618;28;20455;-80
2021/12/19 14:09:19;;;;;;;4.07;1.67;;;;;;;;;;4971156;28;21048;-80
2021/12/19 14:11:49;;;;;;;3.50;1.70;;;;;;;;;;4971155;28;20407;-79
2021/12/19 14:14:28;;;;;;;5.83;2.50;;;;;;;;;;4971173;28;20407;-79
2021/12/19 14:17:00;;;;;;;2.03;1.17;;;;;;;;;;4971262;28;20933;-79
2021/12/19 14:19:49;;;;;;;3.53;1.53;;;;;;;;;;4971331;28;20450;-80
2021/12/19 14:22:16;;;;;;;2.57;1.60;;;;;;;;;;4977323;28;20416;-79
2021/12/19 14:24:42;;;;;;;2.03;1.00;;;;;;;;;;4971315;28;20513;-79
2021/12/19 14:27:25;;;;;;;2.70;1.20;;;;;;;;;;4970811;28;20423;-80
2021/12/19 14:30:03;;;;;;;3.30;1.33;;;;;;;;;;4969585;28;20454;-79
2021/12/19 14:32:32;;;;;;;3.30;1.30;;;;;;;;;;4971008;28;20457;-80
2021/12/19 14:34:59;;;;;;;2.40;1.43;;;;;;;;;;4969848;28;20944;-80
2021/12/19 14:37:33;;;;;;;3.27;1.20;;;;;;;;;;4970927;28;20427;-79
2021/12/19 14:40:19;;;;;;;3.03;1.53;;;;;;;;;;4969058;28;20864;-79
2021/12/19 14:42:47;;;;;;;3.83;1.20;;;;;;;;;;4970725;28;20420;-79
2021/12/19 14:45:18;;;;;;;1.90;1.20;;;;;;;;;;4971070;28;20686;-79
2021/12/19 14:47:46;;;;;;;2.90;1.00;;;;;;;;;;4970912;28;20420;-79
2021/12/19 14:50:13;;;;;;;2.17;1.23;;;;;;;;;;4970196;28;20959;-79
2021/12/19 14:52:40;;;;;;;3.13;1.50;;;;;;;;;;4970652;28;20418;-79
2021/12/19 14:55:10;;;;;;;1.90;1.13;;;;;;;;;;4970821;28;20403;-79
2021/12/19 14:57:36;;;;;;;3.57;1.30;;;;;;;;;;4970694;28;20462;-79
2021/12/19 15:00:04;;;;;;;3.80;1.70;;;;;;;;;;4970308;28;20466;-79
2021/12/19 15:02:30;;;;;;;1.43;1.00;;;;;;;;;;4970621;28;20407;-79
2021/12/19 15:04:56;;;;;;;1.67;1.00;;;;;;;;;;4970758;28;20407;-79
2021/12/19 15:07:25;;;;;;;1.60;1.10;;;;;;;;;;4970468;28;20424;-79
2021/12/19 15:09:51;;;;;;;1.40;0.83;;;;;;;;;;4970212;28;20491;-79
2021/12/19 15:12:17;;;;;;;1.90;1.17;;;;;;;;;;4970588;28;20908;-79
2021/12/19 15:14:44;;;;;;;2.23;1.20;;;;;;;;;;4970203;28;20439;-79
2021/12/19 15:17:10;;;;;;;2.90;1.50;;;;;;;;;;4970602;28;20427;-79
2021/12/19 15:19:36;;;;;;;1.83;1.30;;;;;;;;;;4969851;28;20961;-79
2021/12/19 15:22:02;;;;;;;2.33;1.23;;;;;;;;;;4968800;28;20472;-79
2021/12/19 15:24:28;;;;;;;1.60;1.03;;;;;;;;;;4970427;28;20763;-79
2021/12/19 15:26:54;;;;;;;2.10;1.13;;;;;;;;;;4968973;28;20446;-79
2021/12/19 15:29:20;;;;;;;2.03;1.03;;;;;;;;;;4970417;28;20412;-79
2021/12/19 15:31:46;;;;;;;1.47;1.17;;;;;;;;;;4969926;28;20408;-79
2021/12/19 15:34:13;;;;;;;2.60;1.30;;;;;;;;;;4970475;28;20923;-79
2021/12/19 15:36:39;;;;;;;1.80;1.13;;;;;;;;;;4970368;28;20536;-79
2021/12/19 15:39:06;;;;;;;2.37;1.00;;;;;;;;;;4969987;28;20455;-79
2021/12/19 15:41:33;;;;;;;1.97;1.20;;;;;;;;;;4968736;28;20439;-79
2021/12/19 15:44:00;;;;;;;1.33;0.87;;;;;;;;;;4969942;28;20404;-79
2021/12/19 15:46:26;;;;;;;1.40;0.80;;;;;;;;;;4970076;28;20506;-80
2021/12/19 15:48:53;;;;;;;1.93;1.33;;;;;;;;;;4970266;28;20441;-79
2021/12/19 15:51:19;;;;;;;1.30;0.90;;;;;;;;;;4969614;28;20461;-79
2021/12/19 15:53:46;;;;;;;7.10;1.60;;;;;;;;;;4970066;28;20465;-79
2021/12/19 15:56:12;;;;;;;1.40;0.93;;;;;;;;;;4970022;28;20787;-79
2021/12/19 15:58:38;;;;;;;1.67;0.90;;;;;;;;;;4969685;28;20462;-79
2021/12/19 16:01:05;;;;;;;2.53;1.23;;;;;;;;;;4969515;28;20913;-79
2021/12/19 16:03:31;;;;;;;2.17;1.47;;;;;;;;;;4969720;28;20418;-82
2021/12/19 16:05:57;;;;;;;2.03;1.20;;;;;;;;;;4973164;28;20407;-81